Madawaska, ME

5:09 AM EST on February 11, 2016 (GMT -0500)
W1AYX | | Change Station
CLOSE
Current Station
Personal Weather Station
Location: Madawaska, ME
Elevation: 545 ft
Nearby Weather Stations

Elev 545 ft 47.35 °N, 68.28 °W | Updated 26 seconds ago

Clear
Clear
9.1 °F
Feels Like 9 °F
N
0.0
Wind Variable Wind from West
Gusts 0.0 mph

Today
High -- | Low -- °F
--% Chance of Precip.
Yesterday
High -- | Low -- °F
Precip. -- in
Pressure 29.56 in
Visibility 10.0 miles
Clouds Clear
Windchill 9 °F
Dew Point 2 °F
Humidity 71%
Rainfall 0.00 in
Snow Depth Not available.
6:45 AM 4:50 PM
Waxing Crescent, 11% visible
METAR KFVE 110953Z AUTO 31005KT 10SM CLR M12/M14 A2951 RMK AO2 SLP010 T11171144
Pressure 29.56 in
Visibility 10.0 miles
Clouds Clear
Windchill 9 °F
Dew Point 2 °F
Humidity 71%
Rainfall 0.00 in
Snow Depth Not available.
6:45 AM 4:50 PM
Waxing Crescent, 11% visible
METAR KFVE 110953Z AUTO 31005KT 10SM CLR M12/M14 A2951 RMK AO2 SLP010 T11171144

10-Day Weather Forecast

Almanac

Astronomy

Feb. 11, 2016 Rise Set
Actual Time
Civil Twilight
Nautical Twilight
Astronomical Twilight
Moon
Length of Visible Light
Length of Day
Tomorrow will be .
, % of the Moon is Illuminated

Today's Extremes

State Highs State Lows

Community

WunderPhotos

Upload Photos

1,892,030 photos uploaded!

WunderBlog® & News

Nearby

Air Quality

  Air Quality AQ Index Pollutant
Not available.

Snow Depth

Station Depth Elevation

Earthquake Activity

City Distance Mag. Time & Date
Minimum magnitude displayed is 2.5.

Coastal Water Temperatures

Place Temperature

Stations

Nearby Weather Stations

Station Location Temp. Windchill Dew Point Humidity Wind Precip. Elev Updated Type
                   

Watches & Warnings

There are currently no watches in effect.